createdAt,value
2023-02-22T00:04:59.897Z,100852.53
2023-02-22T00:10:01.856Z,100858.50
2023-02-22T00:15:03.954Z,100843.78
2023-02-22T00:20:07.249Z,100848.94
2023-02-22T00:25:10.175Z,100852.41
2023-02-22T00:30:21.536Z,100851.59
2023-02-22T00:35:28.768Z,100847.22
2023-02-22T00:40:33.588Z,100839.13
2023-02-22T00:45:37.128Z,100836.59
2023-02-22T00:50:39.527Z,100830.44
2023-02-22T00:55:41.422Z,100828.53
2023-02-22T01:00:44.082Z,100823.22
2023-02-22T01:05:46.451Z,100824.94
2023-02-22T01:10:48.363Z,100829.31
2023-02-22T01:15:50.241Z,100834.72
2023-02-22T01:20:52.298Z,100833.00
2023-02-22T01:25:54.392Z,100822.31
2023-02-22T01:30:56.930Z,100826.78
2023-02-22T01:36:00.000Z,100827.78
2023-02-22T01:41:01.963Z,100824.91
2023-02-22T01:46:21.399Z,100813.50
2023-02-22T01:51:37.817Z,100807.28
2023-02-22T01:56:46.866Z,100803.91
2023-02-22T02:01:49.330Z,100807.34
2023-02-22T02:06:53.650Z,100806.63
2023-02-22T02:11:55.956Z,100796.78
2023-02-22T02:17:01.666Z,100797.66
2023-02-22T02:22:19.021Z,100800.41
2023-02-22T02:27:24.555Z,100798.41
2023-02-22T02:32:35.347Z,100801.97
2023-02-22T02:37:48.191Z,100802.97
2023-02-22T02:42:56.043Z,100796.78
2023-02-22T02:48:01.448Z,100782.72
2023-02-22T02:53:07.447Z,100777.25
2023-02-22T02:58:11.528Z,100767.66
2023-02-22T03:03:28.606Z,100760.78
2023-02-22T03:08:50.694Z,100760.66
2023-02-22T03:14:37.617Z,100769.47
2023-02-22T03:19:54.030Z,100769.41
2023-02-22T03:25:22.111Z,100754.31
2023-02-22T03:30:33.334Z,100744.56
2023-02-22T03:35:43.952Z,100735.75
2023-02-22T03:40:49.065Z,100733.25
2023-02-22T03:45:51.616Z,100729.66
2023-02-22T03:50:53.960Z,100718.88
2023-02-22T03:55:58.590Z,100716.31
2023-02-22T04:01:00.824Z,100709.38
2023-02-22T04:06:03.977Z,100704.75
2023-02-22T04:11:06.546Z,100704.66
2023-02-22T04:16:08.601Z,100710.22
2023-02-22T04:21:10.720Z,100702.09
2023-02-22T04:26:12.795Z,100699.38
2023-02-22T04:31:15.937Z,100697.88
2023-02-22T04:36:18.454Z,100694.34
2023-02-22T04:41:20.677Z,100679.94
2023-02-22T04:46:22.758Z,100675.47
2023-02-22T04:51:27.677Z,100671.25
2023-02-22T04:56:29.490Z,100662.50
2023-02-22T05:01:33.885Z,100667.75
2023-02-22T05:06:35.948Z,100657.13
2023-02-22T05:11:38.227Z,100658.22
2023-02-22T05:16:40.252Z,100642.13
2023-02-22T05:21:42.095Z,100643.16
2023-02-22T05:26:47.067Z,100632.41
2023-02-22T05:31:49.113Z,100623.50
2023-02-22T05:36:50.924Z,100613.03
2023-02-22T05:41:52.954Z,100611.00
2023-02-22T05:46:54.882Z,100605.84
2023-02-22T05:51:59.803Z,100601.53
2023-02-22T05:57:02.090Z,100601.34
2023-02-22T06:02:04.536Z,100592.72
2023-02-22T06:07:06.798Z,100581.19
2023-02-22T06:12:09.329Z,100583.84
2023-02-22T06:17:11.276Z,100579.44
2023-02-22T06:22:18.318Z,100574.06
2023-02-22T06:27:20.098Z,100580.41
2023-02-22T06:32:21.989Z,100576.88
2023-02-22T06:37:24.032Z,100574.31
2023-02-22T06:42:26.456Z,100583.06
2023-02-22T06:47:29.085Z,100571.66
2023-02-22T06:52:30.967Z,100576.09
2023-02-22T06:57:33.007Z,100567.28
2023-02-22T07:02:35.293Z,100574.59
2023-02-22T07:07:38.994Z,100576.47
2023-02-22T07:12:40.885Z,100572.03
2023-02-22T07:17:42.978Z,100564.13
2023-02-22T07:22:44.799Z,100575.69
2023-02-22T07:27:46.923Z,100576.59
2023-02-22T07:32:49.739Z,100563.28
2023-02-22T07:37:54.016Z,100568.75
2023-02-22T07:43:02.517Z,100574.75
2023-02-22T07:48:05.973Z,100579.03
2023-02-22T07:53:13.522Z,100585.34
2023-02-22T07:58:15.939Z,100580.91
2023-02-22T08:03:20.349Z,100576.19
2023-02-22T08:08:23.231Z,100572.56
2023-02-22T08:13:25.407Z,100574.16
2023-02-22T08:18:27.489Z,100570.41
2023-02-22T08:23:29.718Z,100567.91
2023-02-22T08:28:32.014Z,100565.09
2023-02-22T08:33:33.918Z,100569.38
2023-02-22T08:38:35.866Z,100567.91
2023-02-22T08:43:38.012Z,100563.47
2023-02-22T08:48:49.528Z,100571.50
2023-02-22T08:53:51.478Z,100561.25
2023-02-22T08:58:53.543Z,100564.63
2023-02-22T09:03:56.496Z,100569.00
2023-02-22T09:08:59.090Z,100559.31
2023-02-22T09:14:00.890Z,100566.97
2023-02-22T09:19:02.958Z,100555.50
2023-02-22T09:24:08.839Z,100554.47
2023-02-22T09:29:11.898Z,100551.81
2023-02-22T09:34:16.833Z,100551.91
2023-02-22T09:39:18.982Z,100540.44
2023-02-22T09:44:29.529Z,100526.38
2023-02-22T09:49:47.761Z,100525.59
2023-02-22T09:55:06.163Z,100525.66
2023-02-22T10:00:21.605Z,100527.03
2023-02-22T10:05:29.681Z,100519.06
2023-02-22T10:10:36.728Z,100526.13
2023-02-22T10:15:51.708Z,100529.88
2023-02-22T10:21:07.983Z,100531.44
2023-02-22T10:26:17.400Z,100529.56
2023-02-22T10:31:29.047Z,100526.13
2023-02-22T10:36:31.072Z,100525.13
2023-02-22T10:41:41.454Z,100520.94
2023-02-22T10:46:45.143Z,100524.25
2023-02-22T10:51:57.842Z,100519.19
2023-02-22T10:57:00.955Z,100520.69
2023-02-22T11:02:22.007Z,100512.03
2023-02-22T11:07:30.563Z,100513.75
2023-02-22T11:12:40.046Z,100504.78
2023-02-22T11:17:41.925Z,100496.66
2023-02-22T11:22:44.181Z,100489.75
2023-02-22T11:27:47.184Z,100489.75
2023-02-22T11:32:55.208Z,100494.09
2023-02-22T11:38:29.238Z,100492.34
2023-02-22T11:43:31.837Z,100493.28
2023-02-22T11:48:36.919Z,100490.53
2023-02-22T11:53:47.734Z,100498.41
2023-02-22T11:59:08.199Z,100498.47
2023-02-22T12:04:52.324Z,100488.91
2023-02-22T12:10:12.050Z,100480.00
2023-02-22T12:15:40.730Z,100484.63
2023-02-22T12:20:51.988Z,100485.31
2023-02-22T12:25:59.102Z,100486.19
2023-02-22T12:31:34.283Z,100488.97
2023-02-22T12:36:42.391Z,100483.78
2023-02-22T12:41:49.146Z,100479.03
2023-02-22T12:46:53.858Z,100480.75
2023-02-22T12:52:21.906Z,100481.59
2023-02-22T12:57:49.244Z,100470.34
2023-02-22T13:03:03.595Z,100467.84
2023-02-22T13:08:34.758Z,100468.72
2023-02-22T13:14:07.080Z,100464.97
2023-02-22T13:19:20.461Z,100474.69
2023-02-22T13:24:45.494Z,100473.84
2023-02-22T13:29:55.552Z,100475.56
2023-02-22T13:35:29.448Z,100469.50
2023-02-22T13:40:49.098Z,100468.31
2023-02-22T13:46:05.813Z,100479.25
2023-02-22T13:51:47.552Z,100480.00
2023-02-22T13:56:51.682Z,100470.41
2023-02-22T14:01:55.274Z,100476.50
2023-02-22T14:07:02.169Z,100472.22
2023-02-22T14:12:04.373Z,100472.38
2023-02-22T14:17:27.948Z,100482.22
2023-02-22T14:22:30.051Z,100482.66
2023-02-22T14:27:41.959Z,100490.00
2023-02-22T14:32:44.027Z,100487.22
2023-02-22T14:37:54.271Z,100493.44
2023-02-22T14:43:04.657Z,100486.44
2023-02-22T14:48:25.177Z,100492.59
2023-02-22T14:53:37.446Z,100498.69
2023-02-22T14:58:55.363Z,100501.47
2023-02-22T15:04:07.832Z,100498.81
2023-02-22T15:09:28.756Z,100497.97
2023-02-22T15:14:42.045Z,100495.25
2023-02-22T15:19:44.552Z,100499.59
2023-02-22T15:24:59.169Z,100494.41
2023-02-22T15:30:05.141Z,100498.91
2023-02-22T15:35:27.136Z,100505.16
2023-02-22T15:40:35.271Z,100507.72
2023-02-22T15:45:43.385Z,100505.00
2023-02-22T15:51:14.530Z,100505.31
2023-02-22T15:56:30.455Z,100502.34
2023-02-22T16:01:41.334Z,100508.66
2023-02-22T16:06:44.639Z,100513.34
2023-02-22T16:11:47.691Z,100515.94
2023-02-22T16:16:50.269Z,100514.06
2023-02-22T16:21:55.106Z,100519.44
2023-02-22T16:27:17.603Z,100530.13
2023-02-22T16:32:19.475Z,100521.06
2023-02-22T16:37:23.530Z,100527.09
2023-02-22T16:42:25.637Z,100531.31
2023-02-22T16:47:27.786Z,100541.16
2023-02-22T16:52:29.606Z,100545.66
2023-02-22T16:57:32.686Z,100547.31
2023-02-22T17:02:34.793Z,100540.28
2023-02-22T17:07:37.242Z,100543.81
2023-02-22T17:12:44.459Z,100545.41
2023-02-22T17:17:46.369Z,100549.88
2023-02-22T17:22:48.338Z,100565.63
2023-02-22T17:27:50.295Z,100564.94
2023-02-22T17:32:52.808Z,100559.59
2023-02-22T17:37:54.791Z,100570.91
2023-02-22T17:42:58.204Z,100575.94
2023-02-22T17:48:00.050Z,100584.81
2023-02-22T17:53:02.082Z,100584.03
2023-02-22T17:58:05.034Z,100589.50
2023-02-22T18:03:09.310Z,100592.22
2023-02-22T18:08:11.281Z,100599.59
2023-02-22T18:13:19.044Z,100595.91
2023-02-22T18:18:22.662Z,100596.69
2023-02-22T18:23:28.062Z,100595.25
2023-02-22T18:28:31.558Z,100593.38
2023-02-22T18:33:33.508Z,100594.13
2023-02-22T18:38:36.177Z,100594.94
2023-02-22T18:43:38.629Z,100594.53
2023-02-22T18:48:40.949Z,100591.03
2023-02-22T18:53:48.103Z,100596.94
2023-02-22T18:58:54.459Z,100599.53
2023-02-22T19:03:56.637Z,100593.22
2023-02-22T19:09:01.484Z,100600.56
2023-02-22T19:14:06.758Z,100596.16
2023-02-22T19:19:08.527Z,100592.00
2023-02-22T19:24:10.367Z,100595.44
2023-02-22T19:29:12.489Z,100586.47
2023-02-22T19:34:15.815Z,100590.91
2023-02-22T19:39:20.612Z,100577.72
2023-02-22T19:44:23.876Z,100585.75
2023-02-22T19:49:28.118Z,100587.47
2023-02-22T19:54:30.140Z,100589.25
2023-02-22T19:59:32.010Z,100592.00
2023-02-22T20:04:34.685Z,100593.84
2023-02-22T20:09:39.825Z,100599.25
2023-02-22T20:14:42.233Z,100607.00
2023-02-22T20:19:44.087Z,100595.59
2023-02-22T20:24:47.703Z,100598.19
2023-02-22T20:29:50.089Z,100608.25
2023-02-22T20:34:52.237Z,100605.44
2023-02-22T20:39:54.122Z,100600.59
2023-02-22T20:44:55.984Z,100600.84
2023-02-22T20:49:58.660Z,100603.25
2023-02-22T20:55:02.075Z,100606.09
2023-02-22T21:00:05.891Z,100604.81
2023-02-22T21:05:07.788Z,100599.66
2023-02-22T21:10:09.924Z,100608.69
2023-02-22T21:15:11.960Z,100603.69
2023-02-22T21:20:14.566Z,100608.16
2023-02-22T21:25:17.137Z,100608.00
2023-02-22T21:30:19.759Z,100600.31
2023-02-22T21:35:25.339Z,100608.16
2023-02-22T21:40:28.126Z,100615.09
2023-02-22T21:45:30.228Z,100610.22
2023-02-22T21:50:33.017Z,100608.22
2023-02-22T21:55:35.262Z,100609.66
2023-02-22T22:00:42.895Z,100613.09
2023-02-22T22:05:46.329Z,100611.53
2023-02-22T22:10:55.503Z,100609.72
2023-02-22T22:16:03.572Z,100608.00
2023-02-22T22:21:10.938Z,100601.91
2023-02-22T22:26:15.136Z,100604.34
2023-02-22T22:31:18.035Z,100599.25
2023-02-22T22:36:22.206Z,100593.06
2023-02-22T22:41:25.193Z,100594.75
2023-02-22T22:46:27.472Z,100594.94
2023-02-22T22:51:29.269Z,100593.06
2023-02-22T22:56:35.421Z,100593.78
2023-02-22T23:01:40.955Z,100595.59
2023-02-22T23:06:45.411Z,100598.38
2023-02-22T23:11:54.010Z,100593.84
2023-02-22T23:17:03.860Z,100597.53
2023-02-22T23:22:07.375Z,100602.00
2023-02-22T23:27:11.030Z,100598.47
2023-02-22T23:32:14.779Z,100592.22
2023-02-22T23:37:20.967Z,100596.69
2023-02-22T23:42:23.274Z,100606.28
2023-02-22T23:47:25.426Z,100611.66
2023-02-22T23:52:30.170Z,100611.66
2023-02-22T23:57:33.156Z,100608.94
